»·PEaware :: WAT175 KSAN-KLAS

WAT175 :: KSAN-KLAS

FLIGHT INFORMATION

Flight Status: Arrived
Operator:
Walker Air Transport
More flights by this operator :: More flights under this callsign
Pilot: Michael C. (27126)
Aircraft: BOEING 737-800
(B738)
More flights by this aircraft type
Origin: KSAN San Diego Intl-Lindbergh
United States
Destination: KLAS McCarran Intl
United States
More flights between these airports :: More routes between these airports
Route: PADRZ2 CHKNN SEBBY YELAH MISEN KEPEC6
File this flight plan on PilotEdge
Remarks: RMK / SIMBRIEF
Altitude:
(Current/Filed)
29,000ft
Speed:
(Current/Filed)
434kts
Departed: 29-Aug-20 06:40 PM
Arrived: 29-Aug-20 07:31 PM
Distance/Time
Traveled:
225nm/0:51
Distance/Time
To Go:
Arrived

Flight Plot

Page will automatically refresh every two minutes.

Flight plan parsing failed; only flown route is shown


Map Options




Map Legend


Flown Route
Filed Route
Departure Airport
Arrival Airport
Navaid (VOR, NDB)
Fix

Horizontal Profiles

Position Reports

Time Latitude Longitude Heading Altitude Ground
Speed
29-Aug-20 18:09 32.733920 -117.200412 254 25ft 0kts
29-Aug-20 18:10 32.733920 -117.200412 254 25ft 0kts
29-Aug-20 18:11 32.733920 -117.200412 254 25ft 0kts
29-Aug-20 18:12 32.733920 -117.200412 254 25ft 0kts
29-Aug-20 18:13 32.733920 -117.200412 254 25ft 0kts
29-Aug-20 18:14 32.733920 -117.200412 254 25ft 0kts
29-Aug-20 18:15 32.733920 -117.200412 254 25ft 0kts
29-Aug-20 18:16 32.733920 -117.200411 254 25ft 0kts
29-Aug-20 18:17 32.733920 -117.200411 254 25ft 0kts
29-Aug-20 18:18 32.733920 -117.200411 254 25ft 0kts
29-Aug-20 18:19 32.733920 -117.200411 254 25ft 0kts
29-Aug-20 18:20 32.733920 -117.200411 254 25ft 0kts
29-Aug-20 18:21 32.733920 -117.200411 254 25ft 0kts
29-Aug-20 18:22 32.733920 -117.200411 254 25ft 0kts
29-Aug-20 18:23 32.733920 -117.200411 254 25ft 0kts
29-Aug-20 18:24 32.733920 -117.200411 254 25ft 0kts
29-Aug-20 18:25 32.733920 -117.200411 254 25ft 0kts
29-Aug-20 18:26 32.733920 -117.200411 254 25ft 0kts
29-Aug-20 18:27 32.733920 -117.200411 254 25ft 0kts
29-Aug-20 18:28 32.733920 -117.200411 254 25ft 0kts
29-Aug-20 18:29 32.733925 -117.200390 254 25ft 1kts
29-Aug-20 18:30 32.733874 -117.199741 339 25ft 2kts
29-Aug-20 18:31 32.733691 -117.199747 14 25ft 0kts
29-Aug-20 18:32 32.733873 -117.199690 14 25ft 6kts
29-Aug-20 18:33 32.734696 -117.198783 95 25ft 11kts
29-Aug-20 18:34 32.733399 -117.193151 107 25ft 23kts
29-Aug-20 18:35 32.731948 -117.187269 106 25ft 26kts
29-Aug-20 18:36 32.730710 -117.182099 106 25ft 27kts
29-Aug-20 18:37 32.729499 -117.176847 78 25ft 0kts
29-Aug-20 18:38 32.730513 -117.177358 285 25ft 30kts
29-Aug-20 18:39 32.744526 -117.219968 317 1710ft 177kts
29-Aug-20 18:40 32.805045 -117.326786 304 5846ft 283kts
29-Aug-20 18:41 32.868481 -117.425138 304 10362ft 297kts
29-Aug-20 18:42 32.923457 -117.510654 305 11954ft 362kts
29-Aug-20 18:43 32.986119 -117.608288 304 14678ft 380kts
29-Aug-20 18:44 33.051798 -117.710778 305 17171ft 396kts
29-Aug-20 18:45 33.135601 -117.802666 316 18920ft 430kts
29-Aug-20 18:46 33.229991 -117.897552 317 20689ft 451kts
29-Aug-20 18:47 33.328335 -117.993201 316 22579ft 461kts
29-Aug-20 18:48 33.428821 -118.091362 315 23600ft 466kts
29-Aug-20 18:49 33.530533 -118.190399 318 25268ft 477kts
29-Aug-20 18:50 33.647604 -118.270989 327 26969ft 487kts
29-Aug-20 18:51 33.780142 -118.304027 6 28523ft 517kts
29-Aug-20 18:52 33.902754 -118.211217 55 28933ft 536kts
29-Aug-20 18:53 33.953900 -118.045318 69 28917ft 531kts
29-Aug-20 18:55 34.028274 -117.889074 57 28928ft 535kts
29-Aug-20 18:56 34.114283 -117.741858 51 28937ft 537kts
29-Aug-20 18:57 34.209563 -117.602031 50 28944ft 537kts
29-Aug-20 18:58 34.304592 -117.462711 50 28944ft 536kts
29-Aug-20 18:59 34.399026 -117.323840 51 28962ft 532kts
29-Aug-20 19:00 34.494040 -117.183729 51 28952ft 541kts
29-Aug-20 19:01 34.589046 -117.042957 50 28947ft 539kts
29-Aug-20 19:02 34.684537 -116.900865 49 28880ft 535kts
29-Aug-20 19:03 34.774795 -116.766044 49 28869ft 491kts
29-Aug-20 19:04 34.862144 -116.643334 41 28546ft 477kts
29-Aug-20 19:05 34.962482 -116.540649 36 26641ft 464kts
29-Aug-20 19:06 35.062033 -116.443456 37 24679ft 455kts
29-Aug-20 19:07 35.152671 -116.339871 45 23876ft 446kts
29-Aug-20 19:08 35.239304 -116.232219 46 22259ft 439kts
29-Aug-20 19:09 35.323260 -116.127032 46 20302ft 422kts
29-Aug-20 19:10 35.403827 -116.025572 47 18398ft 407kts
29-Aug-20 19:10 35.467663 -115.944771 47 17610ft 398kts
29-Aug-20 19:12 35.556339 -115.832359 47 15437ft 383kts
29-Aug-20 19:12 35.617447 -115.754651 47 13902ft 372kts
29-Aug-20 19:13 35.684995 -115.668426 47 13038ft 326kts
29-Aug-20 19:15 35.767322 -115.585557 21 13044ft 333kts
29-Aug-20 19:15 35.843028 -115.570197 10 13040ft 333kts
29-Aug-20 19:16 35.916543 -115.503716 43 13024ft 332kts
29-Aug-20 19:18 35.994406 -115.416428 43 11783ft 308kts
29-Aug-20 19:18 36.028428 -115.346751 89 10823ft 280kts
29-Aug-20 19:19 36.022181 -115.250481 98 9637ft 277kts
29-Aug-20 19:20 36.015251 -115.154035 97 8500ft 287kts
29-Aug-20 19:21 36.011721 -115.056818 94 7389ft 272kts
29-Aug-20 19:22 36.010329 -114.965277 94 6019ft 260kts
29-Aug-20 19:23 36.014962 -114.884744 51 5997ft 238kts
29-Aug-20 19:24 36.066655 -114.902070 301 6000ft 204kts
29-Aug-20 19:25 36.074391 -114.962198 263 4923ft 169kts
29-Aug-20 19:26 36.073595 -115.016422 266 3897ft 165kts
29-Aug-20 19:27 36.073655 -115.060163 266 3225ft 161kts
29-Aug-20 19:28 36.073658 -115.099368 266 2576ft 165kts
29-Aug-20 19:29 36.073674 -115.137023 267 2122ft 147kts
29-Aug-20 19:30 36.074076 -115.153665 293 2121ft 18kts
29-Aug-20 19:31 36.074869 -115.155417 305 2121ft 19kts
29-Aug-20 19:32 36.077266 -115.158203 347 2121ft 0kts
29-Aug-20 19:33 36.078038 -115.153917 90 2121ft 24kts
29-Aug-20 19:34 36.078790 -115.147767 25 2121ft 24kts
29-Aug-20 19:35 36.079925 -115.147063 67 2121ft 0kts
29-Aug-20 19:36 36.079925 -115.147063 67 2121ft 0kts

Navigation Log

Ident Type
Flight plan parsing failed, navigation log unavailable